sensor_id;sensor_type;location;lat;lon;timestamp;P1;durP1;ratioP1;P2;durP2;ratioP2
20336;SDS011;10326;53.660;10.200;2022-08-30T00:00:31;2.22;;;1.10;;
20336;SDS011;10326;53.660;10.200;2022-08-30T00:03:16;1.83;;;1.25;;
20336;SDS011;10326;53.660;10.200;2022-08-30T00:05:43;1.30;;;1.13;;
20336;SDS011;10326;53.660;10.200;2022-08-30T00:08:11;2.13;;;1.10;;
20336;SDS011;10326;53.660;10.200;2022-08-30T00:10:41;3.00;;;1.20;;
20336;SDS011;10326;53.660;10.200;2022-08-30T00:13:08;2.40;;;1.15;;
20336;SDS011;10326;53.660;10.200;2022-08-30T00:15:37;3.90;;;1.30;;
20336;SDS011;10326;53.660;10.200;2022-08-30T00:18:05;1.73;;;1.10;;
20336;SDS011;10326;53.660;10.200;2022-08-30T00:20:33;1.80;;;0.95;;
20336;SDS011;10326;53.660;10.200;2022-08-30T00:23:01;1.58;;;1.30;;
20336;SDS011;10326;53.660;10.200;2022-08-30T00:25:29;1.45;;;1.10;;
20336;SDS011;10326;53.660;10.200;2022-08-30T00:27:58;1.92;;;1.35;;
20336;SDS011;10326;53.660;10.200;2022-08-30T00:30:25;1.40;;;1.30;;
20336;SDS011;10326;53.660;10.200;2022-08-30T00:32:52;1.45;;;1.35;;
20336;SDS011;10326;53.660;10.200;2022-08-30T00:35:19;2.10;;;1.30;;
20336;SDS011;10326;53.660;10.200;2022-08-30T00:37:47;1.23;;;1.13;;
20336;SDS011;10326;53.660;10.200;2022-08-30T00:40:15;2.95;;;1.48;;
20336;SDS011;10326;53.660;10.200;2022-08-30T00:42:44;2.13;;;1.10;;
20336;SDS011;10326;53.660;10.200;2022-08-30T00:45:16;1.67;;;1.17;;
20336;SDS011;10326;53.660;10.200;2022-08-30T00:47:47;1.52;;;1.20;;
20336;SDS011;10326;53.660;10.200;2022-08-30T00:50:15;1.42;;;1.00;;
20336;SDS011;10326;53.660;10.200;2022-08-30T00:52:46;2.17;;;1.15;;
20336;SDS011;10326;53.660;10.200;2022-08-30T00:55:16;1.38;;;1.27;;
20336;SDS011;10326;53.660;10.200;2022-08-30T00:57:44;1.48;;;1.10;;
20336;SDS011;10326;53.660;10.200;2022-08-30T01:00:15;2.03;;;1.30;;
20336;SDS011;10326;53.660;10.200;2022-08-30T01:02:43;2.03;;;1.35;;
20336;SDS011;10326;53.660;10.200;2022-08-30T01:05:10;1.90;;;1.20;;
20336;SDS011;10326;53.660;10.200;2022-08-30T01:07:39;3.25;;;1.27;;
20336;SDS011;10326;53.660;10.200;2022-08-30T01:10:08;1.40;;;1.20;;
20336;SDS011;10326;53.660;10.200;2022-08-30T01:12:38;1.40;;;1.30;;
20336;SDS011;10326;53.660;10.200;2022-08-30T01:15:07;1.90;;;1.30;;
20336;SDS011;10326;53.660;10.200;2022-08-30T01:17:38;1.30;;;1.10;;
20336;SDS011;10326;53.660;10.200;2022-08-30T01:20:09;2.20;;;1.42;;
20336;SDS011;10326;53.660;10.200;2022-08-30T01:22:40;1.40;;;1.30;;
20336;SDS011;10326;53.660;10.200;2022-08-30T01:25:22;1.40;;;1.30;;
20336;SDS011;10326;53.660;10.200;2022-08-30T01:27:54;1.77;;;1.35;;
20336;SDS011;10326;53.660;10.200;2022-08-30T01:30:25;1.77;;;1.30;;
20336;SDS011;10326;53.660;10.200;2022-08-30T01:32:55;1.33;;;1.10;;
20336;SDS011;10326;53.660;10.200;2022-08-30T01:35:24;2.00;;;1.25;;
20336;SDS011;10326;53.660;10.200;2022-08-30T01:37:52;2.45;;;0.98;;
20336;SDS011;10326;53.660;10.200;2022-08-30T01:40:21;1.52;;;1.20;;
20336;SDS011;10326;53.660;10.200;2022-08-30T01:42:48;1.42;;;1.33;;
20336;SDS011;10326;53.660;10.200;2022-08-30T01:45:15;2.88;;;1.50;;
20336;SDS011;10326;53.660;10.200;2022-08-30T01:47:43;1.20;;;1.10;;
20336;SDS011;10326;53.660;10.200;2022-08-30T01:50:10;1.98;;;1.40;;
20336;SDS011;10326;53.660;10.200;2022-08-30T01:52:38;1.95;;;1.35;;
20336;SDS011;10326;53.660;10.200;2022-08-30T01:55:07;2.33;;;1.58;;
20336;SDS011;10326;53.660;10.200;2022-08-30T01:57:35;1.88;;;1.30;;
20336;SDS011;10326;53.660;10.200;2022-08-30T02:00:03;2.15;;;1.20;;
20336;SDS011;10326;53.660;10.200;2022-08-30T02:02:36;1.88;;;1.40;;
20336;SDS011;10326;53.660;10.200;2022-08-30T02:05:04;1.27;;;1.17;;
20336;SDS011;10326;53.660;10.200;2022-08-30T02:07:32;1.80;;;1.30;;
20336;SDS011;10326;53.660;10.200;2022-08-30T02:09:59;1.85;;;1.25;;
20336;SDS011;10326;53.660;10.200;2022-08-30T02:12:28;1.85;;;1.33;;
20336;SDS011;10326;53.660;10.200;2022-08-30T02:14:55;2.45;;;1.25;;
20336;SDS011;10326;53.660;10.200;2022-08-30T02:17:22;2.05;;;1.17;;
20336;SDS011;10326;53.660;10.200;2022-08-30T02:19:49;1.60;;;1.30;;
20336;SDS011;10326;53.660;10.200;2022-08-30T02:22:16;1.40;;;1.20;;
20336;SDS011;10326;53.660;10.200;2022-08-30T02:24:45;2.50;;;1.60;;
20336;SDS011;10326;53.660;10.200;2022-08-30T02:27:11;3.10;;;1.35;;
20336;SDS011;10326;53.660;10.200;2022-08-30T02:29:40;1.40;;;1.30;;
20336;SDS011;10326;53.660;10.200;2022-08-30T02:32:07;1.70;;;1.60;;
20336;SDS011;10326;53.660;10.200;2022-08-30T02:34:34;1.13;;;1.02;;
20336;SDS011;10326;53.660;10.200;2022-08-30T02:37:01;2.15;;;1.40;;
20336;SDS011;10326;53.660;10.200;2022-08-30T02:39:28;1.33;;;1.23;;
20336;SDS011;10326;53.660;10.200;2022-08-30T02:41:55;1.20;;;1.10;;
20336;SDS011;10326;53.660;10.200;2022-08-30T02:44:22;2.25;;;1.40;;
20336;SDS011;10326;53.660;10.200;2022-08-30T02:46:51;1.38;;;1.23;;
20336;SDS011;10326;53.660;10.200;2022-08-30T02:49:18;2.00;;;1.20;;
20336;SDS011;10326;53.660;10.200;2022-08-30T02:51:45;1.55;;;1.30;;
20336;SDS011;10326;53.660;10.200;2022-08-30T02:54:12;2.15;;;1.30;;
20336;SDS011;10326;53.660;10.200;2022-08-30T02:56:43;1.38;;;1.23;;
20336;SDS011;10326;53.660;10.200;2022-08-30T02:59:11;3.97;;;1.30;;
20336;SDS011;10326;53.660;10.200;2022-08-30T03:01:38;1.35;;;1.20;;
20336;SDS011;10326;53.660;10.200;2022-08-30T03:04:06;4.63;;;1.42;;
20336;SDS011;10326;53.660;10.200;2022-08-30T03:06:34;2.13;;;1.40;;
20336;SDS011;10326;53.660;10.200;2022-08-30T03:09:01;2.55;;;1.60;;
20336;SDS011;10326;53.660;10.200;2022-08-30T03:11:28;1.52;;;1.20;;
20336;SDS011;10326;53.660;10.200;2022-08-30T03:13:56;2.10;;;1.30;;
20336;SDS011;10326;53.660;10.200;2022-08-30T03:16:23;1.38;;;1.23;;
20336;SDS011;10326;53.660;10.200;2022-08-30T03:18:50;2.25;;;1.40;;
20336;SDS011;10326;53.660;10.200;2022-08-30T03:21:18;1.20;;;1.10;;
20336;SDS011;10326;53.660;10.200;2022-08-30T03:23:45;2.15;;;1.55;;
20336;SDS011;10326;53.660;10.200;2022-08-30T03:26:13;1.73;;;1.10;;
20336;SDS011;10326;53.660;10.200;2022-08-30T03:28:40;2.47;;;1.30;;
20336;SDS011;10326;53.660;10.200;2022-08-30T03:31:09;1.58;;;1.45;;
20336;SDS011;10326;53.660;10.200;2022-08-30T03:33:37;3.40;;;1.50;;
20336;SDS011;10326;53.660;10.200;2022-08-30T03:36:05;1.85;;;1.60;;
20336;SDS011;10326;53.660;10.200;2022-08-30T03:38:34;1.67;;;1.33;;
20336;SDS011;10326;53.660;10.200;2022-08-30T03:41:02;1.63;;;1.20;;
20336;SDS011;10326;53.660;10.200;2022-08-30T03:43:30;1.45;;;1.20;;
20336;SDS011;10326;53.660;10.200;2022-08-30T03:45:58;4.65;;;1.77;;
20336;SDS011;10326;53.660;10.200;2022-08-30T03:48:26;2.55;;;1.48;;
20336;SDS011;10326;53.660;10.200;2022-08-30T03:50:53;1.40;;;1.10;;
20336;SDS011;10326;53.660;10.200;2022-08-30T03:53:20;2.28;;;1.58;;
20336;SDS011;10326;53.660;10.200;2022-08-30T03:55:49;1.83;;;1.33;;
20336;SDS011;10326;53.660;10.200;2022-08-30T03:58:16;1.35;;;1.20;;
20336;SDS011;10326;53.660;10.200;2022-08-30T04:00:43;1.25;;;1.15;;
20336;SDS011;10326;53.660;10.200;2022-08-30T04:03:10;1.23;;;1.13;;
20336;SDS011;10326;53.660;10.200;2022-08-30T04:05:38;2.08;;;1.20;;
20336;SDS011;10326;53.660;10.200;2022-08-30T04:08:05;1.20;;;1.10;;
20336;SDS011;10326;53.660;10.200;2022-08-30T04:10:32;3.70;;;1.73;;
20336;SDS011;10326;53.660;10.200;2022-08-30T04:13:00;1.63;;;1.33;;
20336;SDS011;10326;53.660;10.200;2022-08-30T04:15:27;2.65;;;1.38;;
20336;SDS011;10326;53.660;10.200;2022-08-30T04:17:54;2.40;;;1.42;;
20336;SDS011;10326;53.660;10.200;2022-08-30T04:20:21;1.67;;;1.00;;
20336;SDS011;10326;53.660;10.200;2022-08-30T04:22:48;2.42;;;1.38;;
20336;SDS011;10326;53.660;10.200;2022-08-30T04:25:15;1.92;;;1.20;;
20336;SDS011;10326;53.660;10.200;2022-08-30T04:27:43;1.30;;;1.20;;
20336;SDS011;10326;53.660;10.200;2022-08-30T04:30:13;2.60;;;1.40;;
20336;SDS011;10326;53.660;10.200;2022-08-30T04:32:42;1.35;;;1.25;;
20336;SDS011;10326;53.660;10.200;2022-08-30T04:35:10;1.65;;;1.23;;
20336;SDS011;10326;53.660;10.200;2022-08-30T04:37:38;1.55;;;1.20;;
20336;SDS011;10326;53.660;10.200;2022-08-30T04:40:06;2.47;;;1.52;;
20336;SDS011;10326;53.660;10.200;2022-08-30T04:42:35;1.85;;;1.67;;
20336;SDS011;10326;53.660;10.200;2022-08-30T04:45:04;1.50;;;1.35;;
20336;SDS011;10326;53.660;10.200;2022-08-30T04:47:35;3.08;;;1.40;;
20336;SDS011;10326;53.660;10.200;2022-08-30T04:50:03;1.80;;;1.40;;
20336;SDS011;10326;53.660;10.200;2022-08-30T04:52:31;1.33;;;1.23;;
20336;SDS011;10326;53.660;10.200;2022-08-30T04:54:58;2.10;;;1.38;;
20336;SDS011;10326;53.660;10.200;2022-08-30T04:57:26;1.75;;;1.65;;
20336;SDS011;10326;53.660;10.200;2022-08-30T04:59:53;1.30;;;1.10;;
20336;SDS011;10326;53.660;10.200;2022-08-30T05:02:20;1.52;;;1.42;;
20336;SDS011;10326;53.660;10.200;2022-08-30T05:04:49;1.80;;;1.40;;
20336;SDS011;10326;53.660;10.200;2022-08-30T05:07:34;2.25;;;1.42;;
20336;SDS011;10326;53.660;10.200;2022-08-30T05:10:01;1.95;;;1.70;;
20336;SDS011;10326;53.660;10.200;2022-08-30T05:12:29;1.85;;;1.65;;
20336;SDS011;10326;53.660;10.200;2022-08-30T05:14:56;2.85;;;1.40;;
20336;SDS011;10326;53.660;10.200;2022-08-30T05:17:23;1.90;;;1.70;;
20336;SDS011;10326;53.660;10.200;2022-08-30T05:19:52;1.50;;;1.40;;
20336;SDS011;10326;53.660;10.200;2022-08-30T05:22:19;2.55;;;1.58;;
20336;SDS011;10326;53.660;10.200;2022-08-30T05:24:46;2.20;;;1.50;;
20336;SDS011;10326;53.660;10.200;2022-08-30T05:27:13;1.73;;;1.25;;
20336;SDS011;10326;53.660;10.200;2022-08-30T05:29:40;3.78;;;1.52;;
20336;SDS011;10326;53.660;10.200;2022-08-30T05:32:07;1.60;;;1.50;;
20336;SDS011;10326;53.660;10.200;2022-08-30T05:34:34;2.67;;;1.75;;
20336;SDS011;10326;53.660;10.200;2022-08-30T05:37:02;2.22;;;1.60;;
20336;SDS011;10326;53.660;10.200;2022-08-30T05:39:29;1.90;;;1.60;;
20336;SDS011;10326;53.660;10.200;2022-08-30T05:41:56;1.60;;;1.35;;
20336;SDS011;10326;53.660;10.200;2022-08-30T05:44:24;2.65;;;1.40;;
20336;SDS011;10326;53.660;10.200;2022-08-30T05:46:51;3.88;;;1.40;;
20336;SDS011;10326;53.660;10.200;2022-08-30T05:49:18;2.45;;;1.48;;
20336;SDS011;10326;53.660;10.200;2022-08-30T05:51:45;2.40;;;1.48;;
20336;SDS011;10326;53.660;10.200;2022-08-30T05:54:14;1.50;;;1.40;;
20336;SDS011;10326;53.660;10.200;2022-08-30T05:56:42;2.13;;;1.38;;
20336;SDS011;10326;53.660;10.200;2022-08-30T05:59:11;2.03;;;1.48;;
20336;SDS011;10326;53.660;10.200;2022-08-30T06:01:41;1.65;;;1.55;;
20336;SDS011;10326;53.660;10.200;2022-08-30T06:04:10;1.45;;;1.23;;
20336;SDS011;10326;53.660;10.200;2022-08-30T06:06:39;2.63;;;1.50;;
20336;SDS011;10326;53.660;10.200;2022-08-30T06:09:09;2.30;;;1.45;;
20336;SDS011;10326;53.660;10.200;2022-08-30T06:11:39;2.97;;;1.40;;
20336;SDS011;10326;53.660;10.200;2022-08-30T06:14:06;1.45;;;1.35;;
20336;SDS011;10326;53.660;10.200;2022-08-30T06:16:33;3.28;;;1.70;;
20336;SDS011;10326;53.660;10.200;2022-08-30T06:19:04;2.90;;;1.60;;
20336;SDS011;10326;53.660;10.200;2022-08-30T06:21:35;1.90;;;1.30;;
20336;SDS011;10326;53.660;10.200;2022-08-30T06:24:04;2.42;;;1.50;;
20336;SDS011;10326;53.660;10.200;2022-08-30T06:26:35;1.92;;;1.30;;
20336;SDS011;10326;53.660;10.200;2022-08-30T06:29:06;1.38;;;1.23;;
20336;SDS011;10326;53.660;10.200;2022-08-30T06:31:34;2.03;;;1.52;;
20336;SDS011;10326;53.660;10.200;2022-08-30T06:34:01;2.95;;;1.50;;
20336;SDS011;10326;53.660;10.200;2022-08-30T06:36:29;1.50;;;1.20;;
20336;SDS011;10326;53.660;10.200;2022-08-30T06:38:56;1.95;;;1.30;;
20336;SDS011;10326;53.660;10.200;2022-08-30T06:41:25;2.05;;;1.42;;
20336;SDS011;10326;53.660;10.200;2022-08-30T06:43:54;2.00;;;1.55;;
20336;SDS011;10326;53.660;10.200;2022-08-30T06:46:26;2.40;;;1.70;;
20336;SDS011;10326;53.660;10.200;2022-08-30T06:48:56;4.25;;;1.80;;
20336;SDS011;10326;53.660;10.200;2022-08-30T06:51:24;1.73;;;1.50;;
20336;SDS011;10326;53.660;10.200;2022-08-30T06:53:56;4.53;;;1.35;;
20336;SDS011;10326;53.660;10.200;2022-08-30T06:56:23;3.83;;;1.50;;
20336;SDS011;10326;53.660;10.200;2022-08-30T06:58:50;3.42;;;1.70;;
20336;SDS011;10326;53.660;10.200;2022-08-30T07:01:19;2.50;;;1.40;;
20336;SDS011;10326;53.660;10.200;2022-08-30T07:03:48;1.92;;;1.40;;
20336;SDS011;10326;53.660;10.200;2022-08-30T07:06:16;2.05;;;1.40;;
20336;SDS011;10326;53.660;10.200;2022-08-30T07:08:44;29.23;;;2.53;;
20336;SDS011;10326;53.660;10.200;2022-08-30T07:11:13;5.90;;;1.55;;
20336;SDS011;10326;53.660;10.200;2022-08-30T07:13:40;2.00;;;1.65;;
20336;SDS011;10326;53.660;10.200;2022-08-30T07:16:09;2.92;;;1.70;;
20336;SDS011;10326;53.660;10.200;2022-08-30T07:18:37;2.42;;;1.70;;
20336;SDS011;10326;53.660;10.200;2022-08-30T07:21:18;2.78;;;1.80;;
20336;SDS011;10326;53.660;10.200;2022-08-30T07:23:47;2.15;;;1.58;;
20336;SDS011;10326;53.660;10.200;2022-08-30T07:26:16;2.58;;;1.77;;
20336;SDS011;10326;53.660;10.200;2022-08-30T07:28:46;1.88;;;1.48;;
20336;SDS011;10326;53.660;10.200;2022-08-30T07:31:14;3.83;;;1.58;;
20336;SDS011;10326;53.660;10.200;2022-08-30T07:33:42;6.68;;;1.88;;
20336;SDS011;10326;53.660;10.200;2022-08-30T07:36:09;2.03;;;1.70;;
20336;SDS011;10326;53.660;10.200;2022-08-30T07:38:38;2.40;;;1.52;;
20336;SDS011;10326;53.660;10.200;2022-08-30T07:41:05;1.67;;;1.42;;
20336;SDS011;10326;53.660;10.200;2022-08-30T07:43:33;4.40;;;1.92;;
20336;SDS011;10326;53.660;10.200;2022-08-30T07:46:02;3.30;;;1.65;;
20336;SDS011;10326;53.660;10.200;2022-08-30T07:48:32;5.50;;;1.90;;
20336;SDS011;10326;53.660;10.200;2022-08-30T07:51:00;2.63;;;1.70;;
20336;SDS011;10326;53.660;10.200;2022-08-30T07:53:29;2.10;;;1.67;;
20336;SDS011;10326;53.660;10.200;2022-08-30T07:55:58;4.10;;;1.45;;
20336;SDS011;10326;53.660;10.200;2022-08-30T07:58:24;3.33;;;1.80;;
20336;SDS011;10326;53.660;10.200;2022-08-30T08:00:52;1.50;;;1.40;;
20336;SDS011;10326;53.660;10.200;2022-08-30T08:03:19;1.52;;;1.20;;
20336;SDS011;10326;53.660;10.200;2022-08-30T08:05:46;2.72;;;1.38;;
20336;SDS011;10326;53.660;10.200;2022-08-30T08:08:13;1.50;;;1.30;;
20336;SDS011;10326;53.660;10.200;2022-08-30T08:10:40;1.50;;;1.40;;
20336;SDS011;10326;53.660;10.200;2022-08-30T08:13:09;1.70;;;1.20;;
20336;SDS011;10326;53.660;10.200;2022-08-30T08:15:36;2.83;;;1.15;;
20336;SDS011;10326;53.660;10.200;2022-08-30T08:18:04;1.95;;;1.30;;
20336;SDS011;10326;53.660;10.200;2022-08-30T08:20:32;1.92;;;1.27;;
20336;SDS011;10326;53.660;10.200;2022-08-30T08:22:59;1.33;;;1.02;;
20336;SDS011;10326;53.660;10.200;2022-08-30T08:25:27;1.13;;;1.00;;
20336;SDS011;10326;53.660;10.200;2022-08-30T08:27:54;1.52;;;0.95;;
20336;SDS011;10326;53.660;10.200;2022-08-30T08:30:22;1.70;;;0.88;;
20336;SDS011;10326;53.660;10.200;2022-08-30T08:32:50;2.20;;;1.08;;
20336;SDS011;10326;53.660;10.200;2022-08-30T08:35:17;1.88;;;0.90;;
20336;SDS011;10326;53.660;10.200;2022-08-30T08:37:45;0.90;;;0.80;;
20336;SDS011;10326;53.660;10.200;2022-08-30T08:40:13;2.45;;;0.95;;
20336;SDS011;10326;53.660;10.200;2022-08-30T08:42:54;1.33;;;1.00;;
20336;SDS011;10326;53.660;10.200;2022-08-30T08:45:42;1.02;;;0.93;;
20336;SDS011;10326;53.660;10.200;2022-08-30T08:48:19;1.75;;;1.00;;
20336;SDS011;10326;53.660;10.200;2022-08-30T08:50:57;2.55;;;0.95;;
20336;SDS011;10326;53.660;10.200;2022-08-30T08:53:42;1.10;;;1.00;;
20336;SDS011;10326;53.660;10.200;2022-08-30T08:56:15;3.30;;;0.90;;
20336;SDS011;10326;53.660;10.200;2022-08-30T08:58:46;1.10;;;1.00;;
20336;SDS011;10326;53.660;10.200;2022-08-30T09:01:18;2.65;;;1.10;;
20336;SDS011;10326;53.660;10.200;2022-08-30T09:03:48;1.70;;;0.95;;
20336;SDS011;10326;53.660;10.200;2022-08-30T09:06:22;1.20;;;1.05;;
20336;SDS011;10326;53.660;10.200;2022-08-30T09:09:04;1.70;;;1.02;;
20336;SDS011;10326;53.660;10.200;2022-08-30T09:11:33;1.17;;;1.05;;
20336;SDS011;10326;53.660;10.200;2022-08-30T09:14:02;2.38;;;1.30;;
20336;SDS011;10326;53.660;10.200;2022-08-30T09:19:29;1.50;;;1.40;;
20336;SDS011;10326;53.660;10.200;2022-08-30T09:22:05;3.63;;;1.40;;
20336;SDS011;10326;53.660;10.200;2022-08-30T09:24:42;3.20;;;1.52;;
20336;SDS011;10326;53.660;10.200;2022-08-30T09:30:00;1.33;;;1.23;;
20336;SDS011;10326;53.660;10.200;2022-08-30T09:32:35;1.75;;;1.25;;
20336;SDS011;10326;53.660;10.200;2022-08-30T09:35:05;1.42;;;1.30;;
20336;SDS011;10326;53.660;10.200;2022-08-30T09:37:38;1.50;;;1.27;;
20336;SDS011;10326;53.660;10.200;2022-08-30T09:40:13;1.48;;;1.10;;
20336;SDS011;10326;53.660;10.200;2022-08-30T09:42:57;4.20;;;1.27;;
20336;SDS011;10326;53.660;10.200;2022-08-30T09:45:29;3.13;;;1.30;;
20336;SDS011;10326;53.660;10.200;2022-08-30T09:48:01;2.40;;;1.35;;
20336;SDS011;10326;53.660;10.200;2022-08-30T09:50:54;1.20;;;1.02;;
20336;SDS011;10326;53.660;10.200;2022-08-30T09:53:56;1.30;;;1.20;;
20336;SDS011;10326;53.660;10.200;2022-08-30T09:56:36;1.48;;;1.38;;
20336;SDS011;10326;53.660;10.200;2022-08-30T09:59:10;1.92;;;1.10;;
20336;SDS011;10326;53.660;10.200;2022-08-30T10:01:53;1.10;;;1.00;;
20336;SDS011;10326;53.660;10.200;2022-08-30T10:04:33;1.25;;;1.10;;
20336;SDS011;10326;53.660;10.200;2022-08-30T10:07:11;1.30;;;1.20;;
20336;SDS011;10326;53.660;10.200;2022-08-30T10:09:50;1.30;;;1.20;;
20336;SDS011;10326;53.660;10.200;2022-08-30T10:12:24;1.10;;;1.00;;
20336;SDS011;10326;53.660;10.200;2022-08-30T10:14:59;1.05;;;0.95;;
20336;SDS011;10326;53.660;10.200;2022-08-30T10:17:34;1.70;;;1.15;;
20336;SDS011;10326;53.660;10.200;2022-08-30T10:20:20;1.15;;;1.02;;
20336;SDS011;10326;53.660;10.200;2022-08-30T10:22:55;2.05;;;1.05;;
20336;SDS011;10326;53.660;10.200;2022-08-30T10:25:31;1.27;;;1.15;;
20336;SDS011;10326;53.660;10.200;2022-08-30T10:28:01;1.42;;;1.02;;
20336;SDS011;10326;53.660;10.200;2022-08-30T10:30:37;1.85;;;1.30;;
20336;SDS011;10326;53.660;10.200;2022-08-30T10:33:10;1.33;;;0.95;;
20336;SDS011;10326;53.660;10.200;2022-08-30T10:35:44;1.70;;;1.33;;
20336;SDS011;10326;53.660;10.200;2022-08-30T10:38:17;1.38;;;1.25;;
20336;SDS011;10326;53.660;10.200;2022-08-30T10:40:51;1.35;;;1.13;;
20336;SDS011;10326;53.660;10.200;2022-08-30T10:43:42;1.20;;;1.10;;
20336;SDS011;10326;53.660;10.200;2022-08-30T10:46:18;1.48;;;1.05;;
20336;SDS011;10326;53.660;10.200;2022-08-30T10:48:57;1.58;;;1.30;;
20336;SDS011;10326;53.660;10.200;2022-08-30T10:51:29;2.00;;;1.35;;
20336;SDS011;10326;53.660;10.200;2022-08-30T10:54:07;2.15;;;1.20;;
20336;SDS011;10326;53.660;10.200;2022-08-30T10:56:41;1.35;;;1.08;;
20336;SDS011;10326;53.660;10.200;2022-08-30T10:59:10;1.73;;;1.20;;
20336;SDS011;10326;53.660;10.200;2022-08-30T11:01:44;1.73;;;1.23;;
20336;SDS011;10326;53.660;10.200;2022-08-30T11:04:56;1.95;;;1.25;;
20336;SDS011;10326;53.660;10.200;2022-08-30T11:07:57;2.95;;;1.10;;
20336;SDS011;10326;53.660;10.200;2022-08-30T11:10:37;4.25;;;1.63;;
20336;SDS011;10326;53.660;10.200;2022-08-30T11:13:17;8.48;;;1.52;;
20336;SDS011;10326;53.660;10.200;2022-08-30T11:15:54;1.20;;;0.90;;
20336;SDS011;10326;53.660;10.200;2022-08-30T11:18:26;1.05;;;0.95;;
20336;SDS011;10326;53.660;10.200;2022-08-30T11:24:01;1.90;;;1.00;;
20336;SDS011;10326;53.660;10.200;2022-08-30T11:29:30;1.73;;;1.05;;
20336;SDS011;10326;53.660;10.200;2022-08-30T11:35:35;3.58;;;1.10;;
20336;SDS011;10326;53.660;10.200;2022-08-30T11:38:12;2.08;;;1.20;;
20336;SDS011;10326;53.660;10.200;2022-08-30T11:40:48;1.17;;;1.00;;
20336;SDS011;10326;53.660;10.200;2022-08-30T11:46:38;2.92;;;0.93;;
20336;SDS011;10326;53.660;10.200;2022-08-30T11:52:10;1.50;;;0.90;;
20336;SDS011;10326;53.660;10.200;2022-08-30T11:54:53;1.00;;;0.90;;
20336;SDS011;10326;53.660;10.200;2022-08-30T11:57:45;2.58;;;1.10;;
20336;SDS011;10326;53.660;10.200;2022-08-30T12:00:25;1.25;;;1.00;;
20336;SDS011;10326;53.660;10.200;2022-08-30T12:02:57;2.35;;;1.20;;
20336;SDS011;10326;53.660;10.200;2022-08-30T12:08:39;2.70;;;1.10;;
20336;SDS011;10326;53.660;10.200;2022-08-30T12:14:35;1.75;;;0.90;;
20336;SDS011;10326;53.660;10.200;2022-08-30T12:17:14;1.60;;;0.98;;
20336;SDS011;10326;53.660;10.200;2022-08-30T12:20:46;1.35;;;0.95;;
20336;SDS011;10326;53.660;10.200;2022-08-30T12:23:18;1.55;;;0.93;;
20336;SDS011;10326;53.660;10.200;2022-08-30T12:26:07;1.02;;;0.90;;
20336;SDS011;10326;53.660;10.200;2022-08-30T12:28:44;1.77;;;1.00;;
20336;SDS011;10326;53.660;10.200;2022-08-30T12:31:16;1.48;;;1.00;;
20336;SDS011;10326;53.660;10.200;2022-08-30T12:33:50;1.02;;;0.90;;
20336;SDS011;10326;53.660;10.200;2022-08-30T12:36:31;1.33;;;1.00;;
20336;SDS011;10326;53.660;10.200;2022-08-30T12:39:03;1.63;;;1.30;;
20336;SDS011;10326;53.660;10.200;2022-08-30T12:41:37;1.30;;;1.10;;
20336;SDS011;10326;53.660;10.200;2022-08-30T12:44:06;1.60;;;1.10;;
20336;SDS011;10326;53.660;10.200;2022-08-30T12:46:40;1.00;;;0.80;;
20336;SDS011;10326;53.660;10.200;2022-08-30T12:49:12;2.88;;;1.10;;
20336;SDS011;10326;53.660;10.200;2022-08-30T12:51:41;2.97;;;0.90;;
20336;SDS011;10326;53.660;10.200;2022-08-30T12:54:13;1.40;;;1.00;;
20336;SDS011;10326;53.660;10.200;2022-08-30T12:56:47;1.92;;;1.13;;
20336;SDS011;10326;53.660;10.200;2022-08-30T13:02:17;1.13;;;0.82;;
20336;SDS011;10326;53.660;10.200;2022-08-30T13:04:48;3.13;;;1.20;;
20336;SDS011;10326;53.660;10.200;2022-08-30T13:07:31;1.00;;;0.80;;
20336;SDS011;10326;53.660;10.200;2022-08-30T13:10:03;1.20;;;0.90;;
20336;SDS011;10326;53.660;10.200;2022-08-30T13:12:35;1.15;;;1.00;;
20336;SDS011;10326;53.660;10.200;2022-08-30T13:15:10;1.40;;;1.10;;
20336;SDS011;10326;53.660;10.200;2022-08-30T13:17:44;4.47;;;1.02;;
20336;SDS011;10326;53.660;10.200;2022-08-30T13:20:22;2.58;;;1.00;;
20336;SDS011;10326;53.660;10.200;2022-08-30T13:23:01;1.10;;;0.90;;
20336;SDS011;10326;53.660;10.200;2022-08-30T13:25:32;1.50;;;0.80;;
20336;SDS011;10326;53.660;10.200;2022-08-30T13:28:01;1.00;;;0.85;;
20336;SDS011;10326;53.660;10.200;2022-08-30T13:30:30;3.22;;;1.08;;
20336;SDS011;10326;53.660;10.200;2022-08-30T13:32:59;1.15;;;0.80;;
20336;SDS011;10326;53.660;10.200;2022-08-30T13:35:26;1.55;;;1.13;;
20336;SDS011;10326;53.660;10.200;2022-08-30T13:37:54;1.42;;;0.82;;
20336;SDS011;10326;53.660;10.200;2022-08-30T13:40:22;1.05;;;0.82;;
20336;SDS011;10326;53.660;10.200;2022-08-30T13:42:49;0.90;;;0.90;;
20336;SDS011;10326;53.660;10.200;2022-08-30T13:45:16;1.10;;;0.82;;
20336;SDS011;10326;53.660;10.200;2022-08-30T13:47:45;2.53;;;0.93;;
20336;SDS011;10326;53.660;10.200;2022-08-30T13:50:14;1.27;;;1.05;;
20336;SDS011;10326;53.660;10.200;2022-08-30T13:52:43;2.53;;;1.02;;
20336;SDS011;10326;53.660;10.200;2022-08-30T13:55:10;2.58;;;1.00;;
20336;SDS011;10326;53.660;10.200;2022-08-30T13:57:37;3.05;;;1.13;;
20336;SDS011;10326;53.660;10.200;2022-08-30T14:00:06;1.88;;;1.10;;
20336;SDS011;10326;53.660;10.200;2022-08-30T14:02:38;1.25;;;0.98;;
20336;SDS011;10326;53.660;10.200;2022-08-30T14:05:07;0.80;;;0.80;;
20336;SDS011;10326;53.660;10.200;2022-08-30T14:07:36;1.17;;;1.08;;
20336;SDS011;10326;53.660;10.200;2022-08-30T14:10:03;0.73;;;0.73;;
20336;SDS011;10326;53.660;10.200;2022-08-30T14:12:31;1.30;;;0.98;;
20336;SDS011;10326;53.660;10.200;2022-08-30T14:14:58;2.30;;;0.80;;
20336;SDS011;10326;53.660;10.200;2022-08-30T14:17:27;1.65;;;0.90;;
20336;SDS011;10326;53.660;10.200;2022-08-30T14:19:57;4.13;;;1.05;;
20336;SDS011;10326;53.660;10.200;2022-08-30T14:22:24;1.73;;;1.10;;
20336;SDS011;10326;53.660;10.200;2022-08-30T14:24:53;1.83;;;0.90;;
20336;SDS011;10326;53.660;10.200;2022-08-30T14:27:20;2.50;;;0.95;;
20336;SDS011;10326;53.660;10.200;2022-08-30T14:29:47;0.98;;;0.88;;
20336;SDS011;10326;53.660;10.200;2022-08-30T14:32:14;2.05;;;1.05;;
20336;SDS011;10326;53.660;10.200;2022-08-30T14:34:42;1.17;;;1.00;;
20336;SDS011;10326;53.660;10.200;2022-08-30T14:37:08;2.20;;;1.10;;
20336;SDS011;10326;53.660;10.200;2022-08-30T14:39:36;0.77;;;0.77;;
20336;SDS011;10326;53.660;10.200;2022-08-30T14:42:05;1.48;;;1.00;;
20336;SDS011;10326;53.660;10.200;2022-08-30T14:44:33;0.93;;;0.90;;
20336;SDS011;10326;53.660;10.200;2022-08-30T14:47:01;1.02;;;0.80;;
20336;SDS011;10326;53.660;10.200;2022-08-30T14:49:30;1.00;;;0.82;;
20336;SDS011;10326;53.660;10.200;2022-08-30T14:51:57;1.90;;;1.00;;
20336;SDS011;10326;53.660;10.200;2022-08-30T14:54:25;1.15;;;0.90;;
20336;SDS011;10326;53.660;10.200;2022-08-30T14:56:55;1.13;;;0.90;;
20336;SDS011;10326;53.660;10.200;2022-08-30T14:59:24;1.65;;;0.90;;
20336;SDS011;10326;53.660;10.200;2022-08-30T15:01:52;1.65;;;1.20;;
20336;SDS011;10326;53.660;10.200;2022-08-30T15:04:19;4.30;;;1.10;;
20336;SDS011;10326;53.660;10.200;2022-08-30T15:06:47;1.00;;;0.90;;
20336;SDS011;10326;53.660;10.200;2022-08-30T15:09:15;1.90;;;1.05;;
20336;SDS011;10326;53.660;10.200;2022-08-30T15:11:44;1.02;;;0.88;;
20336;SDS011;10326;53.660;10.200;2022-08-30T15:14:11;1.13;;;1.00;;
20336;SDS011;10326;53.660;10.200;2022-08-30T15:16:40;2.22;;;0.90;;
20336;SDS011;10326;53.660;10.200;2022-08-30T15:19:08;2.10;;;0.77;;
20336;SDS011;10326;53.660;10.200;2022-08-30T15:21:36;1.58;;;0.80;;
20336;SDS011;10326;53.660;10.200;2022-08-30T15:24:06;0.90;;;0.90;;